sensor_id;sensor_type;location;lat;lon;timestamp;P1;durP1;ratioP1;P2;durP2;ratioP2
24157;SDS011;12316;50.904;4.200;2022-11-15T00:00:53;28.25;;;20.67;;
24157;SDS011;12316;50.904;4.200;2022-11-15T00:03:23;31.05;;;21.75;;
24157;SDS011;12316;50.904;4.200;2022-11-15T00:05:49;31.27;;;21.10;;
24157;SDS011;12316;50.904;4.200;2022-11-15T00:08:15;29.50;;;21.92;;
24157;SDS011;12316;50.904;4.200;2022-11-15T00:10:41;34.22;;;22.27;;
24157;SDS011;12316;50.904;4.200;2022-11-15T00:13:08;27.25;;;20.80;;
24157;SDS011;12316;50.904;4.200;2022-11-15T00:15:36;31.10;;;22.00;;
24157;SDS011;12316;50.904;4.200;2022-11-15T00:18:03;27.20;;;21.42;;
24157;SDS011;12316;50.904;4.200;2022-11-15T00:20:29;31.20;;;21.30;;
24157;SDS011;12316;50.904;4.200;2022-11-15T00:22:55;30.02;;;21.85;;
24157;SDS011;12316;50.904;4.200;2022-11-15T00:25:21;30.40;;;21.33;;
24157;SDS011;12316;50.904;4.200;2022-11-15T00:27:46;31.25;;;20.70;;
24157;SDS011;12316;50.904;4.200;2022-11-15T00:30:12;32.30;;;21.48;;
24157;SDS011;12316;50.904;4.200;2022-11-15T00:32:37;34.00;;;20.75;;
24157;SDS011;12316;50.904;4.200;2022-11-15T00:35:03;30.60;;;21.00;;
24157;SDS011;12316;50.904;4.200;2022-11-15T00:37:29;29.90;;;20.50;;
24157;SDS011;12316;50.904;4.200;2022-11-15T00:39:54;27.08;;;22.02;;
24157;SDS011;12316;50.904;4.200;2022-11-15T00:42:21;30.75;;;21.60;;
24157;SDS011;12316;50.904;4.200;2022-11-15T00:44:47;28.67;;;20.65;;
24157;SDS011;12316;50.904;4.200;2022-11-15T00:47:13;29.83;;;20.77;;
24157;SDS011;12316;50.904;4.200;2022-11-15T00:49:38;30.25;;;20.60;;
24157;SDS011;12316;50.904;4.200;2022-11-15T00:52:05;29.65;;;21.05;;
24157;SDS011;12316;50.904;4.200;2022-11-15T00:54:31;28.50;;;20.10;;
24157;SDS011;12316;50.904;4.200;2022-11-15T00:56:56;26.77;;;19.58;;
24157;SDS011;12316;50.904;4.200;2022-11-15T00:59:22;30.98;;;19.27;;
24157;SDS011;12316;50.904;4.200;2022-11-15T01:01:48;24.00;;;19.50;;
24157;SDS011;12316;50.904;4.200;2022-11-15T01:04:13;25.92;;;18.75;;
24157;SDS011;12316;50.904;4.200;2022-11-15T01:06:39;32.13;;;20.02;;
24157;SDS011;12316;50.904;4.200;2022-11-15T01:09:05;27.40;;;19.50;;
24157;SDS011;12316;50.904;4.200;2022-11-15T01:11:30;27.08;;;19.73;;
24157;SDS011;12316;50.904;4.200;2022-11-15T01:13:56;28.65;;;19.73;;
24157;SDS011;12316;50.904;4.200;2022-11-15T01:16:21;28.08;;;20.58;;
24157;SDS011;12316;50.904;4.200;2022-11-15T01:18:47;33.10;;;21.13;;
24157;SDS011;12316;50.904;4.200;2022-11-15T01:21:13;28.58;;;19.48;;
24157;SDS011;12316;50.904;4.200;2022-11-15T01:23:41;30.50;;;20.35;;
24157;SDS011;12316;50.904;4.200;2022-11-15T01:26:07;28.63;;;19.80;;
24157;SDS011;12316;50.904;4.200;2022-11-15T01:28:35;29.52;;;19.88;;
24157;SDS011;12316;50.904;4.200;2022-11-15T01:31:03;24.77;;;19.63;;
24157;SDS011;12316;50.904;4.200;2022-11-15T01:33:30;27.60;;;19.27;;
24157;SDS011;12316;50.904;4.200;2022-11-15T01:36:03;30.75;;;20.50;;
24157;SDS011;12316;50.904;4.200;2022-11-15T01:38:30;27.73;;;17.90;;
24157;SDS011;12316;50.904;4.200;2022-11-15T01:40:55;28.35;;;19.58;;
24157;SDS011;12316;50.904;4.200;2022-11-15T01:43:22;25.30;;;18.50;;
24157;SDS011;12316;50.904;4.200;2022-11-15T01:45:56;29.23;;;19.45;;
24157;SDS011;12316;50.904;4.200;2022-11-15T01:48:31;25.33;;;18.25;;
24157;SDS011;12316;50.904;4.200;2022-11-15T01:51:06;25.98;;;17.92;;
24157;SDS011;12316;50.904;4.200;2022-11-15T01:53:34;25.67;;;17.60;;
24157;SDS011;12316;50.904;4.200;2022-11-15T01:56:03;25.20;;;17.20;;
24157;SDS011;12316;50.904;4.200;2022-11-15T01:58:31;23.85;;;16.85;;
24157;SDS011;12316;50.904;4.200;2022-11-15T02:00:58;25.85;;;17.65;;
24157;SDS011;12316;50.904;4.200;2022-11-15T02:03:25;22.95;;;17.30;;
24157;SDS011;12316;50.904;4.200;2022-11-15T02:05:58;20.80;;;15.77;;
24157;SDS011;12316;50.904;4.200;2022-11-15T02:08:24;24.13;;;16.38;;
24157;SDS011;12316;50.904;4.200;2022-11-15T02:10:49;25.85;;;17.33;;
24157;SDS011;12316;50.904;4.200;2022-11-15T02:13:15;24.73;;;17.38;;
24157;SDS011;12316;50.904;4.200;2022-11-15T02:15:49;24.88;;;17.52;;
24157;SDS011;12316;50.904;4.200;2022-11-15T02:18:34;27.05;;;18.17;;
24157;SDS011;12316;50.904;4.200;2022-11-15T02:21:16;24.75;;;17.25;;
24157;SDS011;12316;50.904;4.200;2022-11-15T02:37:59;26.35;;;16.75;;
24157;SDS011;12316;50.904;4.200;2022-11-15T02:40:45;23.73;;;15.93;;
24157;SDS011;12316;50.904;4.200;2022-11-15T02:43:40;24.70;;;16.30;;
24157;SDS011;12316;50.904;4.200;2022-11-15T02:46:29;25.42;;;16.00;;
24157;SDS011;12316;50.904;4.200;2022-11-15T02:49:24;15.65;;;11.18;;
24157;SDS011;12316;50.904;4.200;2022-11-15T02:51:54;21.35;;;15.10;;
24157;SDS011;12316;50.904;4.200;2022-11-15T02:54:24;19.58;;;14.52;;
24157;SDS011;12316;50.904;4.200;2022-11-15T02:56:54;22.55;;;14.15;;
24157;SDS011;12316;50.904;4.200;2022-11-15T03:05:13;20.52;;;13.70;;
24157;SDS011;12316;50.904;4.200;2022-11-15T03:10:32;22.90;;;14.43;;
24157;SDS011;12316;50.904;4.200;2022-11-15T03:13:12;22.00;;;14.27;;
24157;SDS011;12316;50.904;4.200;2022-11-15T03:15:54;20.45;;;14.30;;
24157;SDS011;12316;50.904;4.200;2022-11-15T03:18:52;21.30;;;13.65;;
24157;SDS011;12316;50.904;4.200;2022-11-15T03:21:20;17.80;;;13.15;;
24157;SDS011;12316;50.904;4.200;2022-11-15T03:23:47;21.30;;;13.57;;
24157;SDS011;12316;50.904;4.200;2022-11-15T03:26:15;19.27;;;13.10;;
24157;SDS011;12316;50.904;4.200;2022-11-15T03:28:52;21.23;;;13.07;;
24157;SDS011;12316;50.904;4.200;2022-11-15T03:31:21;17.42;;;12.38;;
24157;SDS011;12316;50.904;4.200;2022-11-15T03:34:10;17.23;;;11.15;;
24157;SDS011;12316;50.904;4.200;2022-11-15T03:37:18;16.90;;;10.93;;
24157;SDS011;12316;50.904;4.200;2022-11-15T03:39:47;21.00;;;11.95;;
24157;SDS011;12316;50.904;4.200;2022-11-15T03:42:30;17.90;;;10.57;;
24157;SDS011;12316;50.904;4.200;2022-11-15T03:45:22;17.30;;;10.75;;
24157;SDS011;12316;50.904;4.200;2022-11-15T03:48:01;14.88;;;9.85;;
24157;SDS011;12316;50.904;4.200;2022-11-15T03:50:35;12.88;;;9.98;;
24157;SDS011;12316;50.904;4.200;2022-11-15T03:53:01;13.50;;;9.82;;
24157;SDS011;12316;50.904;4.200;2022-11-15T03:55:27;18.08;;;9.70;;
24157;SDS011;12316;50.904;4.200;2022-11-15T03:57:54;12.05;;;8.98;;
24157;SDS011;12316;50.904;4.200;2022-11-15T04:00:22;15.00;;;9.50;;
24157;SDS011;12316;50.904;4.200;2022-11-15T04:02:48;13.43;;;8.88;;
24157;SDS011;12316;50.904;4.200;2022-11-15T04:05:14;13.70;;;8.48;;
24157;SDS011;12316;50.904;4.200;2022-11-15T04:07:39;16.80;;;9.63;;
24157;SDS011;12316;50.904;4.200;2022-11-15T04:10:05;12.32;;;9.27;;
24157;SDS011;12316;50.904;4.200;2022-11-15T04:12:33;14.05;;;8.93;;
24157;SDS011;12316;50.904;4.200;2022-11-15T04:15:04;15.10;;;9.05;;
24157;SDS011;12316;50.904;4.200;2022-11-15T04:20:14;13.98;;;8.95;;
24157;SDS011;12316;50.904;4.200;2022-11-15T04:23:03;14.07;;;8.55;;
24157;SDS011;12316;50.904;4.200;2022-11-15T04:25:49;19.00;;;8.52;;
24157;SDS011;12316;50.904;4.200;2022-11-15T04:28:18;14.75;;;8.50;;
24157;SDS011;12316;50.904;4.200;2022-11-15T04:30:44;14.82;;;8.07;;
24157;SDS011;12316;50.904;4.200;2022-11-15T04:33:09;11.48;;;8.40;;
24157;SDS011;12316;50.904;4.200;2022-11-15T04:35:35;15.23;;;8.60;;
24157;SDS011;12316;50.904;4.200;2022-11-15T04:38:01;17.15;;;8.38;;
24157;SDS011;12316;50.904;4.200;2022-11-15T04:40:29;11.70;;;8.13;;
24157;SDS011;12316;50.904;4.200;2022-11-15T04:42:54;16.17;;;8.15;;
24157;SDS011;12316;50.904;4.200;2022-11-15T04:45:20;14.07;;;7.93;;
24157;SDS011;12316;50.904;4.200;2022-11-15T04:47:46;14.88;;;7.85;;
24157;SDS011;12316;50.904;4.200;2022-11-15T04:50:12;10.32;;;7.32;;
24157;SDS011;12316;50.904;4.200;2022-11-15T04:52:42;11.40;;;7.50;;
24157;SDS011;12316;50.904;4.200;2022-11-15T04:55:14;12.68;;;7.07;;
24157;SDS011;12316;50.904;4.200;2022-11-15T04:57:40;12.40;;;6.70;;
24157;SDS011;12316;50.904;4.200;2022-11-15T05:00:06;12.77;;;7.10;;
24157;SDS011;12316;50.904;4.200;2022-11-15T05:02:34;12.68;;;7.15;;
24157;SDS011;12316;50.904;4.200;2022-11-15T05:05:18;15.05;;;7.75;;
24157;SDS011;12316;50.904;4.200;2022-11-15T05:07:44;13.18;;;7.50;;
24157;SDS011;12316;50.904;4.200;2022-11-15T05:10:10;12.45;;;7.05;;
24157;SDS011;12316;50.904;4.200;2022-11-15T05:12:35;13.38;;;6.82;;
24157;SDS011;12316;50.904;4.200;2022-11-15T05:15:01;15.15;;;7.45;;
24157;SDS011;12316;50.904;4.200;2022-11-15T05:17:27;12.93;;;6.45;;
24157;SDS011;12316;50.904;4.200;2022-11-15T05:19:52;10.68;;;6.80;;
24157;SDS011;12316;50.904;4.200;2022-11-15T05:22:18;14.43;;;6.47;;
24157;SDS011;12316;50.904;4.200;2022-11-15T05:24:44;13.38;;;6.22;;
24157;SDS011;12316;50.904;4.200;2022-11-15T05:27:10;12.27;;;5.97;;
24157;SDS011;12316;50.904;4.200;2022-11-15T05:29:35;9.52;;;5.88;;
24157;SDS011;12316;50.904;4.200;2022-11-15T05:32:03;14.55;;;6.68;;
24157;SDS011;12316;50.904;4.200;2022-11-15T05:34:30;13.30;;;5.72;;
24157;SDS011;12316;50.904;4.200;2022-11-15T05:36:56;15.10;;;5.53;;
24157;SDS011;12316;50.904;4.200;2022-11-15T05:39:22;13.10;;;5.25;;
24157;SDS011;12316;50.904;4.200;2022-11-15T05:41:49;14.10;;;5.50;;
24157;SDS011;12316;50.904;4.200;2022-11-15T05:44:18;9.55;;;5.07;;
24157;SDS011;12316;50.904;4.200;2022-11-15T05:46:47;10.68;;;5.00;;
24157;SDS011;12316;50.904;4.200;2022-11-15T05:49:16;10.30;;;5.00;;
24157;SDS011;12316;50.904;4.200;2022-11-15T05:51:45;11.23;;;5.57;;
24157;SDS011;12316;50.904;4.200;2022-11-15T05:54:14;8.43;;;5.28;;
24157;SDS011;12316;50.904;4.200;2022-11-15T05:56:41;7.70;;;5.10;;
24157;SDS011;12316;50.904;4.200;2022-11-15T05:59:07;14.80;;;6.00;;
24157;SDS011;12316;50.904;4.200;2022-11-15T06:01:34;8.88;;;5.70;;
24157;SDS011;12316;50.904;4.200;2022-11-15T06:04:00;17.77;;;5.95;;
24157;SDS011;12316;50.904;4.200;2022-11-15T06:06:27;14.02;;;6.78;;
24157;SDS011;12316;50.904;4.200;2022-11-15T06:08:53;14.70;;;6.95;;
24157;SDS011;12316;50.904;4.200;2022-11-15T06:11:19;14.80;;;7.15;;
24157;SDS011;12316;50.904;4.200;2022-11-15T06:13:44;13.05;;;7.63;;
24157;SDS011;12316;50.904;4.200;2022-11-15T06:16:10;17.73;;;8.50;;
24157;SDS011;12316;50.904;4.200;2022-11-15T06:18:36;15.60;;;7.60;;
24157;SDS011;12316;50.904;4.200;2022-11-15T06:21:02;14.50;;;8.13;;
24157;SDS011;12316;50.904;4.200;2022-11-15T06:23:30;13.85;;;7.57;;
24157;SDS011;12316;50.904;4.200;2022-11-15T06:25:57;13.10;;;7.10;;
24157;SDS011;12316;50.904;4.200;2022-11-15T06:28:23;13.70;;;7.38;;
24157;SDS011;12316;50.904;4.200;2022-11-15T06:30:49;12.98;;;7.05;;
24157;SDS011;12316;50.904;4.200;2022-11-15T06:33:15;12.77;;;6.78;;
24157;SDS011;12316;50.904;4.200;2022-11-15T06:35:40;10.90;;;6.93;;
24157;SDS011;12316;50.904;4.200;2022-11-15T06:38:07;12.43;;;6.75;;
24157;SDS011;12316;50.904;4.200;2022-11-15T06:40:34;10.77;;;6.80;;
24157;SDS011;12316;50.904;4.200;2022-11-15T06:43:01;11.60;;;6.95;;
24157;SDS011;12316;50.904;4.200;2022-11-15T06:45:28;13.93;;;7.03;;
24157;SDS011;12316;50.904;4.200;2022-11-15T06:47:53;14.55;;;6.85;;
24157;SDS011;12316;50.904;4.200;2022-11-15T06:50:19;11.85;;;6.88;;
24157;SDS011;12316;50.904;4.200;2022-11-15T06:52:44;9.57;;;6.30;;
24157;SDS011;12316;50.904;4.200;2022-11-15T06:55:10;12.65;;;6.55;;
24157;SDS011;12316;50.904;4.200;2022-11-15T06:57:36;12.75;;;6.60;;
24157;SDS011;12316;50.904;4.200;2022-11-15T07:00:03;11.02;;;5.82;;
24157;SDS011;12316;50.904;4.200;2022-11-15T07:02:29;8.82;;;6.15;;
24157;SDS011;12316;50.904;4.200;2022-11-15T07:04:55;10.68;;;6.18;;
24157;SDS011;12316;50.904;4.200;2022-11-15T07:07:21;10.45;;;6.15;;
24157;SDS011;12316;50.904;4.200;2022-11-15T07:09:46;11.35;;;5.63;;
24157;SDS011;12316;50.904;4.200;2022-11-15T07:12:12;11.82;;;6.22;;
24157;SDS011;12316;50.904;4.200;2022-11-15T07:14:37;15.68;;;6.15;;
24157;SDS011;12316;50.904;4.200;2022-11-15T07:17:04;15.82;;;6.07;;
24157;SDS011;12316;50.904;4.200;2022-11-15T07:19:30;11.35;;;6.53;;
24157;SDS011;12316;50.904;4.200;2022-11-15T07:21:56;13.55;;;6.53;;
24157;SDS011;12316;50.904;4.200;2022-11-15T07:24:21;12.90;;;7.05;;
24157;SDS011;12316;50.904;4.200;2022-11-15T07:26:47;13.50;;;7.20;;
24157;SDS011;12316;50.904;4.200;2022-11-15T07:29:12;12.40;;;6.35;;
24157;SDS011;12316;50.904;4.200;2022-11-15T07:31:38;13.25;;;6.85;;
24157;SDS011;12316;50.904;4.200;2022-11-15T07:34:04;10.73;;;6.43;;
24157;SDS011;12316;50.904;4.200;2022-11-15T07:36:29;11.65;;;6.60;;
24157;SDS011;12316;50.904;4.200;2022-11-15T07:38:55;11.93;;;5.95;;
24157;SDS011;12316;50.904;4.200;2022-11-15T07:41:22;10.27;;;6.75;;
24157;SDS011;12316;50.904;4.200;2022-11-15T07:43:50;9.95;;;6.15;;
24157;SDS011;12316;50.904;4.200;2022-11-15T07:46:17;10.32;;;6.45;;
24157;SDS011;12316;50.904;4.200;2022-11-15T07:48:43;10.63;;;6.72;;
24157;SDS011;12316;50.904;4.200;2022-11-15T07:51:12;11.77;;;6.65;;
24157;SDS011;12316;50.904;4.200;2022-11-15T07:53:39;10.68;;;6.93;;
24157;SDS011;12316;50.904;4.200;2022-11-15T07:56:07;11.50;;;7.32;;
24157;SDS011;12316;50.904;4.200;2022-11-15T07:58:33;12.27;;;7.18;;
24157;SDS011;12316;50.904;4.200;2022-11-15T08:01:02;15.65;;;7.70;;
24157;SDS011;12316;50.904;4.200;2022-11-15T08:03:29;10.75;;;7.40;;
24157;SDS011;12316;50.904;4.200;2022-11-15T08:05:54;14.25;;;7.75;;
24157;SDS011;12316;50.904;4.200;2022-11-15T08:08:20;14.07;;;7.05;;
24157;SDS011;12316;50.904;4.200;2022-11-15T08:10:45;10.68;;;6.35;;
24157;SDS011;12316;50.904;4.200;2022-11-15T08:13:11;12.57;;;6.03;;
24157;SDS011;12316;50.904;4.200;2022-11-15T08:15:37;9.90;;;5.40;;
24157;SDS011;12316;50.904;4.200;2022-11-15T08:18:04;10.95;;;5.35;;
24157;SDS011;12316;50.904;4.200;2022-11-15T08:20:33;12.23;;;5.10;;
24157;SDS011;12316;50.904;4.200;2022-11-15T08:23:00;7.88;;;4.40;;
24157;SDS011;12316;50.904;4.200;2022-11-15T08:25:28;7.07;;;4.50;;
24157;SDS011;12316;50.904;4.200;2022-11-15T08:27:58;8.82;;;3.90;;
24157;SDS011;12316;50.904;4.200;2022-11-15T08:30:25;6.95;;;3.33;;
24157;SDS011;12316;50.904;4.200;2022-11-15T08:32:52;9.65;;;3.30;;
24157;SDS011;12316;50.904;4.200;2022-11-15T08:35:19;9.88;;;3.25;;
24157;SDS011;12316;50.904;4.200;2022-11-15T08:37:45;10.43;;;3.20;;
24157;SDS011;12316;50.904;4.200;2022-11-15T08:40:12;7.60;;;2.95;;
24157;SDS011;12316;50.904;4.200;2022-11-15T08:42:38;7.65;;;2.65;;
24157;SDS011;12316;50.904;4.200;2022-11-15T08:45:05;7.63;;;2.47;;
24157;SDS011;12316;50.904;4.200;2022-11-15T08:47:32;8.32;;;2.70;;
24157;SDS011;12316;50.904;4.200;2022-11-15T08:49:58;8.82;;;2.80;;
24157;SDS011;12316;50.904;4.200;2022-11-15T08:52:23;10.57;;;3.05;;
24157;SDS011;12316;50.904;4.200;2022-11-15T08:54:49;11.65;;;2.83;;
24157;SDS011;12316;50.904;4.200;2022-11-15T08:57:15;10.48;;;3.40;;
24157;SDS011;12316;50.904;4.200;2022-11-15T08:59:40;9.98;;;2.55;;
24157;SDS011;12316;50.904;4.200;2022-11-15T09:02:06;10.50;;;2.65;;
24157;SDS011;12316;50.904;4.200;2022-11-15T09:04:36;5.90;;;2.20;;
24157;SDS011;12316;50.904;4.200;2022-11-15T09:07:02;5.55;;;2.30;;
24157;SDS011;12316;50.904;4.200;2022-11-15T09:09:27;9.48;;;2.47;;
24157;SDS011;12316;50.904;4.200;2022-11-15T09:11:53;8.90;;;2.20;;
24157;SDS011;12316;50.904;4.200;2022-11-15T09:14:19;10.30;;;2.40;;
24157;SDS011;12316;50.904;4.200;2022-11-15T09:16:45;6.32;;;1.95;;
24157;SDS011;12316;50.904;4.200;2022-11-15T09:19:11;4.32;;;1.90;;
24157;SDS011;12316;50.904;4.200;2022-11-15T09:21:36;8.20;;;1.90;;
24157;SDS011;12316;50.904;4.200;2022-11-15T09:24:02;5.50;;;1.80;;
24157;SDS011;12316;50.904;4.200;2022-11-15T09:26:29;6.60;;;1.67;;
24157;SDS011;12316;50.904;4.200;2022-11-15T09:28:54;2.47;;;1.60;;
24157;SDS011;12316;50.904;4.200;2022-11-15T09:31:20;5.22;;;2.20;;
24157;SDS011;12316;50.904;4.200;2022-11-15T09:33:46;4.10;;;1.60;;
24157;SDS011;12316;50.904;4.200;2022-11-15T09:36:12;9.15;;;2.30;;
24157;SDS011;12316;50.904;4.200;2022-11-15T09:38:38;11.95;;;2.15;;
24157;SDS011;12316;50.904;4.200;2022-11-15T09:41:17;6.50;;;2.10;;
24157;SDS011;12316;50.904;4.200;2022-11-15T09:49:31;5.32;;;2.10;;
24157;SDS011;12316;50.904;4.200;2022-11-15T09:51:57;6.10;;;1.50;;
24157;SDS011;12316;50.904;4.200;2022-11-15T09:54:27;8.07;;;1.75;;
24157;SDS011;12316;50.904;4.200;2022-11-15T10:05:07;6.55;;;1.75;;
24157;SDS011;12316;50.904;4.200;2022-11-15T10:07:48;7.97;;;1.70;;
24157;SDS011;12316;50.904;4.200;2022-11-15T10:13:13;7.50;;;1.70;;
24157;SDS011;12316;50.904;4.200;2022-11-15T10:15:47;8.25;;;1.60;;
24157;SDS011;12316;50.904;4.200;2022-11-15T10:18:27;7.65;;;1.63;;
24157;SDS011;12316;50.904;4.200;2022-11-15T10:21:02;6.00;;;1.70;;
24157;SDS011;12316;50.904;4.200;2022-11-15T10:23:43;5.28;;;1.90;;
24157;SDS011;12316;50.904;4.200;2022-11-15T10:26:11;9.52;;;1.80;;
24157;SDS011;12316;50.904;4.200;2022-11-15T10:28:40;11.70;;;1.80;;
24157;SDS011;12316;50.904;4.200;2022-11-15T10:31:21;7.97;;;1.80;;
24157;SDS011;12316;50.904;4.200;2022-11-15T10:33:51;12.13;;;2.85;;
24157;SDS011;12316;50.904;4.200;2022-11-15T10:38:59;8.13;;;2.00;;
24157;SDS011;12316;50.904;4.200;2022-11-15T10:46:33;6.45;;;1.60;;
24157;SDS011;12316;50.904;4.200;2022-11-15T10:49:36;6.72;;;1.70;;
24157;SDS011;12316;50.904;4.200;2022-11-15T10:54:37;25.08;;;4.43;;
24157;SDS011;12316;50.904;4.200;2022-11-15T10:57:16;7.90;;;1.70;;
24157;SDS011;12316;50.904;4.200;2022-11-15T10:59:48;8.68;;;2.30;;
24157;SDS011;12316;50.904;4.200;2022-11-15T11:05:25;7.22;;;1.30;;
24157;SDS011;12316;50.904;4.200;2022-11-15T11:07:55;5.82;;;1.40;;
24157;SDS011;12316;50.904;4.200;2022-11-15T11:10:26;5.45;;;1.10;;
24157;SDS011;12316;50.904;4.200;2022-11-15T11:12:53;8.35;;;1.38;;
24157;SDS011;12316;50.904;4.200;2022-11-15T11:15:19;4.38;;;1.17;;
24157;SDS011;12316;50.904;4.200;2022-11-15T11:17:51;7.53;;;1.30;;
24157;SDS011;12316;50.904;4.200;2022-11-15T11:26:23;7.38;;;1.25;;
24157;SDS011;12316;50.904;4.200;2022-11-15T11:29:01;4.70;;;1.50;;
24157;SDS011;12316;50.904;4.200;2022-11-15T11:34:40;4.53;;;1.48;;
24157;SDS011;12316;50.904;4.200;2022-11-15T11:47:53;6.60;;;1.40;;
24157;SDS011;12316;50.904;4.200;2022-11-15T11:50:39;5.22;;;1.33;;
24157;SDS011;12316;50.904;4.200;2022-11-15T11:55:46;5.32;;;1.25;;
24157;SDS011;12316;50.904;4.200;2022-11-15T11:58:23;4.97;;;1.40;;
24157;SDS011;12316;50.904;4.200;2022-11-15T12:03:55;3.30;;;1.15;;
24157;SDS011;12316;50.904;4.200;2022-11-15T12:11:43;6.30;;;1.50;;
24157;SDS011;12316;50.904;4.200;2022-11-15T12:17:12;6.00;;;1.30;;
24157;SDS011;12316;50.904;4.200;2022-11-15T12:19:41;8.07;;;1.40;;
24157;SDS011;12316;50.904;4.200;2022-11-15T12:30:18;6.47;;;1.40;;
24157;SDS011;12316;50.904;4.200;2022-11-15T12:32:58;5.63;;;1.25;;
24157;SDS011;12316;50.904;4.200;2022-11-15T12:35:42;6.75;;;1.30;;
24157;SDS011;12316;50.904;4.200;2022-11-15T12:38:11;2.90;;;1.30;;
24157;SDS011;12316;50.904;4.200;2022-11-15T12:41:11;6.00;;;1.17;;
24157;SDS011;12316;50.904;4.200;2022-11-15T12:43:42;6.38;;;1.40;;
24157;SDS011;12316;50.904;4.200;2022-11-15T12:46:13;6.13;;;1.35;;
24157;SDS011;12316;50.904;4.200;2022-11-15T12:52:08;10.05;;;6.10;;
24157;SDS011;12316;50.904;4.200;2022-11-15T12:59:48;8.35;;;4.63;;
24157;SDS011;12316;50.904;4.200;2022-11-15T13:02:28;5.20;;;2.60;;
24157;SDS011;12316;50.904;4.200;2022-11-15T13:17:50;4.38;;;1.70;;
24157;SDS011;12316;50.904;4.200;2022-11-15T13:20:19;4.63;;;2.17;;
24157;SDS011;12316;50.904;4.200;2022-11-15T13:30:39;3.78;;;1.50;;
24157;SDS011;12316;50.904;4.200;2022-11-15T13:33:25;4.72;;;1.58;;
24157;SDS011;12316;50.904;4.200;2022-11-15T13:36:08;5.13;;;1.60;;
24157;SDS011;12316;50.904;4.200;2022-11-15T13:39:06;2.45;;;1.42;;
24157;SDS011;12316;50.904;4.200;2022-11-15T13:41:47;3.50;;;1.48;;
24157;SDS011;12316;50.904;4.200;2022-11-15T13:44:54;4.95;;;1.30;;
24157;SDS011;12316;50.904;4.200;2022-11-15T13:47:19;5.57;;;1.85;;
24157;SDS011;12316;50.904;4.200;2022-11-15T13:49:45;4.50;;;1.67;;
24157;SDS011;12316;50.904;4.200;2022-11-15T13:52:14;3.38;;;1.70;;
24157;SDS011;12316;50.904;4.200;2022-11-15T13:59:54;4.45;;;1.85;;
24157;SDS011;12316;50.904;4.200;2022-11-15T14:02:25;5.90;;;1.90;;
24157;SDS011;12316;50.904;4.200;2022-11-15T14:07:27;2.78;;;1.83;;
24157;SDS011;12316;50.904;4.200;2022-11-15T14:09:54;5.40;;;2.10;;
24157;SDS011;12316;50.904;4.200;2022-11-15T14:12:25;5.07;;;2.53;;
24157;SDS011;12316;50.904;4.200;2022-11-15T14:14:59;3.80;;;1.50;;
24157;SDS011;12316;50.904;4.200;2022-11-15T14:19:54;3.83;;;1.80;;
24157;SDS011;12316;50.904;4.200;2022-11-15T14:22:21;3.60;;;1.80;;
24157;SDS011;12316;50.904;4.200;2022-11-15T14:30:37;3.33;;;1.80;;
24157;SDS011;12316;50.904;4.200;2022-11-15T14:35:44;5.32;;;1.73;;
24157;SDS011;12316;50.904;4.200;2022-11-15T14:38:10;3.90;;;1.85;;
24157;SDS011;12316;50.904;4.200;2022-11-15T14:40:36;3.25;;;1.90;;
24157;SDS011;12316;50.904;4.200;2022-11-15T14:43:01;7.18;;;2.00;;
24157;SDS011;12316;50.904;4.200;2022-11-15T14:45:27;6.35;;;2.00;;
24157;SDS011;12316;50.904;4.200;2022-11-15T14:47:53;3.40;;;1.80;;
24157;SDS011;12316;50.904;4.200;2022-11-15T14:50:19;3.00;;;1.98;;
24157;SDS011;12316;50.904;4.200;2022-11-15T14:52:46;5.47;;;2.10;;
24157;SDS011;12316;50.904;4.200;2022-11-15T14:55:29;5.32;;;2.22;;
24157;SDS011;12316;50.904;4.200;2022-11-15T14:58:01;3.65;;;2.10;;
24157;SDS011;12316;50.904;4.200;2022-11-15T15:00:28;5.03;;;2.05;;
24157;SDS011;12316;50.904;4.200;2022-11-15T15:02:55;3.95;;;2.10;;
24157;SDS011;12316;50.904;4.200;2022-11-15T15:05:22;4.53;;;2.40;;
24157;SDS011;12316;50.904;4.200;2022-11-15T15:07:55;3.97;;;1.88;;
24157;SDS011;12316;50.904;4.200;2022-11-15T15:10:21;4.15;;;2.00;;
24157;SDS011;12316;50.904;4.200;2022-11-15T15:12:47;5.38;;;2.00;;
24157;SDS011;12316;50.904;4.200;2022-11-15T15:15:14;3.17;;;2.10;;
24157;SDS011;12316;50.904;4.200;2022-11-15T15:17:43;5.97;;;2.58;;
24157;SDS011;12316;50.904;4.200;2022-11-15T15:20:09;5.40;;;2.33;;
24157;SDS011;12316;50.904;4.200;2022-11-15T15:22:35;3.88;;;2.50;;
24157;SDS011;12316;50.904;4.200;2022-11-15T15:25:02;3.80;;;2.20;;
24157;SDS011;12316;50.904;4.200;2022-11-15T15:27:29;5.72;;;2.28;;
24157;SDS011;12316;50.904;4.200;2022-11-15T15:29:54;4.47;;;2.60;;
24157;SDS011;12316;50.904;4.200;2022-11-15T15:32:20;6.18;;;2.17;;
24157;SDS011;12316;50.904;4.200;2022-11-15T15:34:46;3.55;;;2.20;;
24157;SDS011;12316;50.904;4.200;2022-11-15T15:39:53;3.80;;;2.50;;
24157;SDS011;12316;50.904;4.200;2022-11-15T15:42:20;3.50;;;2.28;;
24157;SDS011;12316;50.904;4.200;2022-11-15T15:44:47;6.32;;;2.50;;
24157;SDS011;12316;50.904;4.200;2022-11-15T15:47:15;3.20;;;2.35;;
24157;SDS011;12316;50.904;4.200;2022-11-15T15:49:46;2.85;;;2.35;;
24157;SDS011;12316;50.904;4.200;2022-11-15T15:52:12;3.78;;;2.40;;
24157;SDS011;12316;50.904;4.200;2022-11-15T15:54:38;4.22;;;2.80;;
24157;SDS011;12316;50.904;4.200;2022-11-15T15:57:05;5.03;;;2.95;;
24157;SDS011;12316;50.904;4.200;2022-11-15T15:59:32;5.68;;;3.15;;
24157;SDS011;12316;50.904;4.200;2022-11-15T16:01:58;4.97;;;3.00;;
24157;SDS011;12316;50.904;4.200;2022-11-15T16:04:24;4.00;;;2.97;;
24157;SDS011;12316;50.904;4.200;2022-11-15T16:06:49;5.72;;;3.00;;
24157;SDS011;12316;50.904;4.200;2022-11-15T16:09:17;3.10;;;2.63;;
24157;SDS011;12316;50.904;4.200;2022-11-15T16:12:04;3.55;;;2.50;;
24157;SDS011;12316;50.904;4.200;2022-11-15T16:14:30;4.43;;;2.70;;
24157;SDS011;12316;50.904;4.200;2022-11-15T16:16:56;3.17;;;2.70;;
24157;SDS011;12316;50.904;4.200;2022-11-15T16:19:22;4.70;;;2.80;;
24157;SDS011;12316;50.904;4.200;2022-11-15T16:21:48;3.97;;;2.80;;
24157;SDS011;12316;50.904;4.200;2022-11-15T16:24:13;4.28;;;2.70;;
24157;SDS011;12316;50.904;4.200;2022-11-15T16:26:39;4.07;;;2.95;;
24157;SDS011;12316;50.904;4.200;2022-11-15T16:29:05;5.20;;;2.83;;
24157;SDS011;12316;50.904;4.200;2022-11-15T16:31:31;4.15;;;2.95;;
24157;SDS011;12316;50.904;4.200;2022-11-15T16:33:57;4.50;;;2.90;;
24157;SDS011;12316;50.904;4.200;2022-11-15T16:36:26;5.22;;;3.33;;
24157;SDS011;12316;50.904;4.200;2022-11-15T16:38:54;5.22;;;3.22;;
24157;SDS011;12316;50.904;4.200;2022-11-15T16:41:20;5.35;;;3.10;;
24157;SDS011;12316;50.904;4.200;2022-11-15T16:43:45;5.47;;;3.15;;
24157;SDS011;12316;50.904;4.200;2022-11-15T16:46:20;4.93;;;3.25;;
24157;SDS011;12316;50.904;4.200;2022-11-15T16:48:47;3.50;;;3.00;;
24157;SDS011;12316;50.904;4.200;2022-11-15T16:51:14;4.05;;;2.85;;
24157;SDS011;12316;50.904;4.200;2022-11-15T16:53:40;3.33;;;3.03;;
24157;SDS011;12316;50.904;4.200;2022-11-15T16:58:51;3.58;;;2.95;;
24157;SDS011;12316;50.904;4.200;2022-11-15T17:01:22;2.83;;;2.63;;
24157;SDS011;12316;50.904;4.200;2022-11-15T17:03:49;4.25;;;2.97;;
24157;SDS011;12316;50.904;4.200;2022-11-15T17:06:15;3.10;;;2.80;;
24157;SDS011;12316;50.904;4.200;2022-11-15T17:08:42;4.68;;;3.28;;
24157;SDS011;12316;50.904;4.200;2022-11-15T17:11:10;4.18;;;3.10;;
24157;SDS011;12316;50.904;4.200;2022-11-15T17:13:44;5.97;;;3.72;;
24157;SDS011;12316;50.904;4.200;2022-11-15T17:16:13;5.80;;;3.30;;
24157;SDS011;12316;50.904;4.200;2022-11-15T17:18:40;5.78;;;3.85;;
24157;SDS011;12316;50.904;4.200;2022-11-15T17:21:13;5.95;;;3.58;;